createdAt,value
2017-02-08T00:00:56.880Z,0
2017-02-08T00:01:56.860Z,0
2017-02-08T00:02:56.449Z,0
2017-02-08T00:03:56.428Z,0
2017-02-08T00:04:56.394Z,0
2017-02-08T00:05:56.358Z,0
2017-02-08T00:06:55.938Z,0
2017-02-08T00:07:56.296Z,0
2017-02-08T00:08:56.286Z,0
2017-02-08T00:09:56.267Z,0
2017-02-08T00:10:56.215Z,0
2017-02-08T00:11:56.575Z,0
2017-02-08T00:12:56.164Z,0
2017-02-08T00:13:56.533Z,0
2017-02-08T00:14:56.124Z,0
2017-02-08T00:15:56.093Z,0
2017-02-08T00:16:56.442Z,0
2017-02-08T00:17:56.022Z,0
2017-02-08T00:18:56.011Z,0
2017-02-08T00:19:56.385Z,0
2017-02-08T00:20:55.590Z,0
2017-02-08T00:21:55.931Z,0
2017-02-08T00:22:56.369Z,0
2017-02-08T00:23:55.489Z,0
2017-02-08T00:24:55.907Z,0
2017-02-08T00:25:56.197Z,0
2017-02-08T00:26:55.788Z,0
2017-02-08T00:27:55.367Z,0
2017-02-08T00:28:55.765Z,0
2017-02-08T00:29:56.116Z,0
2017-02-08T00:30:55.725Z,0
2017-02-08T00:31:56.105Z,0
2017-02-08T00:32:55.624Z,0
2017-02-08T00:33:55.602Z,0
2017-02-08T00:34:55.986Z,0
2017-02-08T00:35:55.940Z,0
2017-02-08T00:36:55.890Z,0
2017-02-08T00:37:55.490Z,0
2017-02-08T00:38:55.530Z,0
2017-02-08T00:39:55.420Z,0
2017-02-08T00:40:55.411Z,0
2017-02-08T00:41:54.988Z,0
2017-02-08T00:42:55.729Z,0
2017-02-08T00:43:55.718Z,0
2017-02-08T00:44:54.924Z,0
2017-02-08T00:45:54.896Z,0
2017-02-08T00:46:55.249Z,0
2017-02-08T00:47:55.215Z,0
2017-02-08T00:48:55.188Z,0
2017-02-08T00:49:54.776Z,0
2017-02-08T00:50:55.150Z,0
2017-02-08T00:51:55.175Z,0
2017-02-08T00:52:54.695Z,0
2017-02-08T00:53:55.064Z,0
2017-02-08T00:54:55.020Z,0
2017-02-08T00:55:55.379Z,0
2017-02-08T00:56:55.351Z,0
2017-02-08T00:57:54.952Z,0
2017-02-08T00:58:54.929Z,0
2017-02-08T00:59:54.540Z,0
2017-02-08T01:00:54.560Z,0
2017-02-08T01:01:54.491Z,0
2017-02-08T01:02:54.825Z,0
2017-02-08T01:03:55.167Z,0
2017-02-08T01:04:54.755Z,0
2017-02-08T01:05:55.137Z,0
2017-02-08T01:06:55.088Z,0
2017-02-08T01:07:55.074Z,0
2017-02-08T01:08:54.662Z,0
2017-02-08T01:09:54.614Z,0
2017-02-08T01:10:54.592Z,0
2017-02-08T01:11:54.572Z,0
2017-02-08T01:12:54.540Z,0
2017-02-08T01:13:54.948Z,0
2017-02-08T01:14:54.092Z,0
2017-02-08T01:15:54.930Z,0
2017-02-08T01:16:54.429Z,0
2017-02-08T01:17:54.821Z,0
2017-02-08T01:18:54.773Z,0
2017-02-08T01:19:54.338Z,0
2017-02-08T01:20:53.928Z,0
2017-02-08T01:21:54.296Z,0
2017-02-08T01:22:54.266Z,0
2017-02-08T01:23:54.247Z,0
2017-02-08T01:24:54.597Z,0
2017-02-08T01:25:53.405Z,0
2017-02-08T01:26:54.163Z,0
2017-02-08T01:27:53.744Z,0
2017-02-08T01:28:53.715Z,0
2017-02-08T01:29:53.683Z,0
2017-02-08T01:30:54.053Z,0
2017-02-08T01:31:53.620Z,0
2017-02-08T01:32:54.001Z,0
2017-02-08T01:33:54.340Z,0
2017-02-08T01:34:54.369Z,0
2017-02-08T01:35:53.539Z,0
2017-02-08T01:36:53.880Z,0
2017-02-08T01:37:53.490Z,0
2017-02-08T01:38:54.227Z,0
2017-02-08T01:39:53.807Z,0
2017-02-08T01:40:53.786Z,0
2017-02-08T01:41:54.167Z,0
2017-02-08T01:42:53.335Z,0
2017-02-08T01:43:53.293Z,0
2017-02-08T01:44:53.663Z,0
2017-02-08T01:45:53.660Z,0
2017-02-08T01:46:53.216Z,0
2017-02-08T01:47:53.194Z,0
2017-02-08T01:48:53.549Z,0
2017-02-08T01:49:53.522Z,0
2017-02-08T01:50:53.889Z,0
2017-02-08T01:51:53.463Z,0
2017-02-08T01:52:53.460Z,0
2017-02-08T01:53:53.419Z,0
2017-02-08T01:54:53.769Z,0
2017-02-08T01:55:53.368Z,0
2017-02-08T01:56:53.775Z,0
2017-02-08T01:57:52.970Z,0
2017-02-08T01:58:53.336Z,0
2017-02-08T01:59:53.256Z,0
2017-02-08T02:00:53.233Z,0
2017-02-08T02:01:53.573Z,0
2017-02-08T02:02:53.563Z,0
2017-02-08T02:03:53.143Z,0
2017-02-08T02:04:53.131Z,0
2017-02-08T02:05:53.482Z,0
2017-02-08T02:06:52.685Z,0
2017-02-08T02:07:53.131Z,0
2017-02-08T02:08:52.993Z,0
2017-02-08T02:09:53.369Z,0
2017-02-08T02:10:53.346Z,0
2017-02-08T02:11:52.539Z,0
2017-02-08T02:12:53.297Z,0
2017-02-08T02:13:52.866Z,0
2017-02-08T02:14:53.236Z,0
2017-02-08T02:15:53.227Z,0
2017-02-08T02:16:52.795Z,0
2017-02-08T02:17:53.255Z,0
2017-02-08T02:18:52.344Z,0
2017-02-08T02:19:53.204Z,0
2017-02-08T02:20:53.082Z,0
2017-02-08T02:21:52.642Z,0
2017-02-08T02:22:53.071Z,0
2017-02-08T02:23:52.982Z,0
2017-02-08T02:24:52.176Z,0
2017-02-08T02:25:52.973Z,0
2017-02-08T02:26:52.550Z,0
2017-02-08T02:27:52.100Z,0
2017-02-08T02:28:52.453Z,0
2017-02-08T02:29:52.422Z,0
2017-02-08T02:30:52.017Z,0
2017-02-08T02:31:52.816Z,0
2017-02-08T02:32:52.377Z,0
2017-02-08T02:33:52.756Z,0
2017-02-08T02:34:51.907Z,0
2017-02-08T02:35:52.767Z,0
2017-02-08T02:36:51.844Z,0
2017-02-08T02:37:52.213Z,0
2017-02-08T02:38:52.187Z,0
2017-02-08T02:39:52.543Z,0
2017-02-08T02:40:51.740Z,0
2017-02-08T02:41:52.498Z,0
2017-02-08T02:42:52.151Z,0
2017-02-08T02:43:52.426Z,0
2017-02-08T02:44:52.440Z,0
2017-02-08T02:45:51.991Z,0
2017-02-08T02:46:52.359Z,0
2017-02-08T02:47:52.331Z,0
2017-02-08T02:48:51.915Z,0
2017-02-08T02:49:52.268Z,0
2017-02-08T02:50:52.237Z,0
2017-02-08T02:51:51.816Z,0
2017-02-08T02:52:52.176Z,0
2017-02-08T02:53:51.385Z,0
2017-02-08T02:54:51.734Z,0
2017-02-08T02:55:52.091Z,0
2017-02-08T02:56:52.073Z,0
2017-02-08T02:57:51.272Z,0
2017-02-08T02:58:51.245Z,0
2017-02-08T02:59:52.041Z,0
2017-02-08T03:00:51.584Z,0
2017-02-08T03:01:51.999Z,0
2017-02-08T03:02:51.918Z,0
2017-02-08T03:03:51.128Z,0
2017-02-08T03:04:51.935Z,0
2017-02-08T03:05:51.895Z,0
2017-02-08T03:06:51.817Z,0
2017-02-08T03:07:51.387Z,0
2017-02-08T03:08:51.766Z,0
2017-02-08T03:09:51.046Z,0
2017-02-08T03:10:50.927Z,0
2017-02-08T03:11:51.334Z,0
2017-02-08T03:12:51.645Z,0
2017-02-08T03:13:50.843Z,0
2017-02-08T03:14:51.602Z,0
2017-02-08T03:15:51.554Z,0
2017-02-08T03:16:50.752Z,0
2017-02-08T03:17:51.109Z,0
2017-02-08T03:18:51.531Z,0
2017-02-08T03:19:51.470Z,0
2017-02-08T03:20:51.529Z,0
2017-02-08T03:21:51.019Z,0
2017-02-08T03:22:51.421Z,0
2017-02-08T03:23:50.958Z,0
2017-02-08T03:24:51.329Z,0
2017-02-08T03:25:50.907Z,0
2017-02-08T03:26:51.366Z,0
2017-02-08T03:27:50.066Z,0
2017-02-08T03:28:50.508Z,0
2017-02-08T03:29:50.785Z,0
2017-02-08T03:30:51.215Z,0
2017-02-08T03:31:50.732Z,0
2017-02-08T03:32:51.085Z,0
2017-02-08T03:33:51.073Z,0
2017-02-08T03:34:51.043Z,0
2017-02-08T03:35:50.752Z,0
2017-02-08T03:36:50.983Z,0
2017-02-08T03:37:51.089Z,0
2017-02-08T03:38:50.932Z,0
2017-02-08T03:39:50.584Z,0
2017-02-08T03:40:49.695Z,0
2017-02-08T03:41:50.477Z,0
2017-02-08T03:42:50.813Z,0
2017-02-08T03:43:50.807Z,0
2017-02-08T03:44:50.778Z,0
2017-02-08T03:45:50.354Z,0
2017-02-08T03:46:50.311Z,0
2017-02-08T03:47:50.333Z,0
2017-02-08T03:48:50.650Z,0
2017-02-08T03:49:50.626Z,0
2017-02-08T03:50:50.597Z,0
2017-02-08T03:51:50.232Z,0
2017-02-08T03:52:49.774Z,0
2017-02-08T03:53:50.507Z,0
2017-02-08T03:54:50.484Z,0
2017-02-08T03:55:50.077Z,0
2017-02-08T03:56:50.452Z,0
2017-02-08T03:57:50.400Z,0
2017-02-08T03:58:49.600Z,0
2017-02-08T03:59:49.580Z,0
2017-02-08T04:00:50.329Z,0
2017-02-08T04:01:50.300Z,0
2017-02-08T04:02:50.296Z,0
2017-02-08T04:03:49.449Z,0
2017-02-08T04:04:49.839Z,0
2017-02-08T04:05:50.176Z,0
2017-02-08T04:06:50.186Z,0
2017-02-08T04:07:50.165Z,0
2017-02-08T04:08:50.185Z,0
2017-02-08T04:09:49.687Z,0
2017-02-08T04:10:49.721Z,0
2017-02-08T04:11:49.300Z,0
2017-02-08T04:12:50.098Z,0
2017-02-08T04:13:49.970Z,0
2017-02-08T04:14:49.946Z,0
2017-02-08T04:15:49.619Z,0
2017-02-08T04:16:49.201Z,0
2017-02-08T04:17:49.566Z,0
2017-02-08T04:18:49.485Z,0
2017-02-08T04:19:49.026Z,0
2017-02-08T04:20:49.009Z,0
2017-02-08T04:21:49.508Z,0
2017-02-08T04:22:49.019Z,0
2017-02-08T04:23:49.755Z,0
2017-02-08T04:24:49.688Z,0
2017-02-08T04:25:49.257Z,0
2017-02-08T04:26:48.837Z,0
2017-02-08T04:27:48.418Z,0
2017-02-08T04:28:49.166Z,0
2017-02-08T04:29:49.146Z,0
2017-02-08T04:30:49.504Z,0
2017-02-08T04:31:49.095Z,0
2017-02-08T04:32:48.714Z,0
2017-02-08T04:33:49.436Z,0
2017-02-08T04:34:49.022Z,0
2017-02-08T04:35:49.372Z,0
2017-02-08T04:36:49.362Z,0
2017-02-08T04:37:49.321Z,0
2017-02-08T04:38:48.991Z,0
2017-02-08T04:39:49.042Z,0
2017-02-08T04:40:49.322Z,0
2017-02-08T04:41:49.219Z,0
2017-02-08T04:42:48.878Z,0
2017-02-08T04:43:49.158Z,0
2017-02-08T04:44:48.796Z,0
2017-02-08T04:45:48.742Z,0
2017-02-08T04:46:48.735Z,0
2017-02-08T04:47:48.650Z,0
2017-02-08T04:48:49.015Z,0
2017-02-08T04:49:48.987Z,0
2017-02-08T04:50:48.954Z,0
2017-02-08T04:51:48.658Z,0
2017-02-08T04:52:48.573Z,0
2017-02-08T04:53:48.495Z,0
2017-02-08T04:54:48.484Z,0
2017-02-08T04:55:48.833Z,0
2017-02-08T04:56:48.792Z,0
2017-02-08T04:57:48.760Z,0
2017-02-08T04:58:48.760Z,0
2017-02-08T04:59:48.320Z,0
2017-02-08T05:00:47.928Z,0
2017-02-08T05:01:48.672Z,0
2017-02-08T05:02:48.268Z,0
2017-02-08T05:03:48.616Z,0
2017-02-08T05:04:48.578Z,0
2017-02-08T05:05:48.550Z,0
2017-02-08T05:06:48.522Z,0
2017-02-08T05:07:48.507Z,0
2017-02-08T05:08:48.490Z,0
2017-02-08T05:09:48.514Z,0
2017-02-08T05:10:48.428Z,0
2017-02-08T05:11:48.386Z,0
2017-02-08T05:12:48.357Z,0
2017-02-08T05:13:48.343Z,0
2017-02-08T05:14:48.324Z,0
2017-02-08T05:15:48.270Z,0
2017-02-08T05:16:47.877Z,0
2017-02-08T05:17:47.951Z,0
2017-02-08T05:18:48.225Z,0
2017-02-08T05:19:48.171Z,0
2017-02-08T05:20:48.150Z,0
2017-02-08T05:21:47.342Z,0
2017-02-08T05:22:47.700Z,0
2017-02-08T05:23:47.298Z,0
2017-02-08T05:24:47.627Z,0
2017-02-08T05:25:47.230Z,0
2017-02-08T05:26:47.988Z,0
2017-02-08T05:27:47.946Z,0
2017-02-08T05:28:47.133Z,0
2017-02-08T05:29:47.884Z,0
2017-02-08T05:30:47.897Z,0
2017-02-08T05:31:47.263Z,0
2017-02-08T05:32:47.553Z,0
2017-02-08T05:33:47.793Z,0
2017-02-08T05:34:47.761Z,0
2017-02-08T05:35:47.742Z,0
2017-02-08T05:36:47.362Z,0
2017-02-08T05:37:47.662Z,0
2017-02-08T05:38:47.666Z,0
2017-02-08T05:39:46.929Z,0
2017-02-08T05:40:47.590Z,0
2017-02-08T05:41:47.188Z,0
2017-02-08T05:42:47.208Z,0
2017-02-08T05:43:46.737Z,0
2017-02-08T05:44:47.107Z,0
2017-02-08T05:45:47.065Z,0
2017-02-08T05:46:47.043Z,0
2017-02-08T05:47:47.016Z,0
2017-02-08T05:48:47.385Z,0
2017-02-08T05:49:46.987Z,0
2017-02-08T05:50:46.611Z,0
2017-02-08T05:51:47.304Z,0
2017-02-08T05:52:46.863Z,0
2017-02-08T05:53:46.852Z,0
2017-02-08T05:54:46.962Z,0
2017-02-08T05:55:46.801Z,0
2017-02-08T05:56:46.780Z,0
2017-02-08T05:57:46.749Z,0
2017-02-08T05:58:47.104Z,0
2017-02-08T05:59:46.299Z,0
2017-02-08T06:00:46.655Z,0
2017-02-08T06:01:47.031Z,0
2017-02-08T06:02:46.987Z,0
2017-02-08T06:03:46.577Z,0
2017-02-08T06:04:46.949Z,0
2017-02-08T06:05:46.527Z,0
2017-02-08T06:06:46.906Z,0
2017-02-08T06:07:46.855Z,0
2017-02-08T06:08:46.436Z,0
2017-02-08T06:09:46.406Z,0
2017-02-08T06:10:46.384Z,0
2017-02-08T06:11:46.363Z,0
2017-02-08T06:12:46.803Z,0
2017-02-08T06:13:46.693Z,0
2017-02-08T06:14:46.275Z,0
2017-02-08T06:15:46.642Z,0
2017-02-08T06:16:46.630Z,0
2017-02-08T06:17:46.201Z,0
2017-02-08T06:18:46.580Z,0
2017-02-08T06:19:46.540Z,0
2017-02-08T06:20:46.541Z,0
2017-02-08T06:21:46.494Z,0
2017-02-08T06:22:46.461Z,0
2017-02-08T06:23:46.029Z,0
2017-02-08T06:24:46.399Z,0
2017-02-08T06:25:46.441Z,0
2017-02-08T06:26:45.947Z,0
2017-02-08T06:27:46.326Z,0
2017-02-08T06:28:46.283Z,0
2017-02-08T06:29:45.884Z,0
2017-02-08T06:30:46.287Z,4
2017-02-08T06:31:45.823Z,4
2017-02-08T06:32:46.184Z,0
2017-02-08T06:33:46.142Z,4
2017-02-08T06:34:46.132Z,0
2017-02-08T06:35:46.103Z,4
2017-02-08T06:36:45.773Z,4
2017-02-08T06:37:46.039Z,8
2017-02-08T06:38:46.029Z,8
2017-02-08T06:39:45.609Z,8
2017-02-08T06:40:45.970Z,8
2017-02-08T06:41:45.935Z,8
2017-02-08T06:42:45.509Z,12
2017-02-08T06:43:45.477Z,12
2017-02-08T06:44:45.834Z,16
2017-02-08T06:45:45.415Z,20
2017-02-08T06:46:45.397Z,20
2017-02-08T06:47:45.785Z,24
2017-02-08T06:48:45.345Z,28
2017-02-08T06:49:45.713Z,32
2017-02-08T06:50:45.684Z,32
2017-02-08T06:51:45.264Z,36
2017-02-08T06:52:44.464Z,36
2017-02-08T06:53:45.603Z,44
2017-02-08T06:54:44.800Z,48
2017-02-08T06:55:45.152Z,48
2017-02-08T06:56:45.140Z,56
2017-02-08T06:57:45.110Z,60
2017-02-08T06:58:45.058Z,64
2017-02-08T06:59:45.444Z,72
2017-02-08T07:00:45.018Z,76
2017-02-08T07:01:44.995Z,84
2017-02-08T07:02:44.955Z,88
2017-02-08T07:03:45.356Z,96
2017-02-08T07:04:44.906Z,100
2017-02-08T07:05:45.286Z,108
2017-02-08T07:06:44.874Z,116
2017-02-08T07:07:45.243Z,124
2017-02-08T07:08:44.035Z,132
2017-02-08T07:09:45.153Z,144
2017-02-08T07:10:44.363Z,152
2017-02-08T07:11:44.711Z,160
2017-02-08T07:12:45.070Z,168
2017-02-08T07:13:44.662Z,168
2017-02-08T07:14:43.887Z,172
2017-02-08T07:15:44.219Z,184
2017-02-08T07:16:44.191Z,184
2017-02-08T07:17:44.552Z,192
2017-02-08T07:18:44.898Z,200
2017-02-08T07:19:44.998Z,208
2017-02-08T07:20:44.456Z,216
2017-02-08T07:21:44.056Z,224
2017-02-08T07:22:44.407Z,236
2017-02-08T07:23:44.386Z,252
2017-02-08T07:24:44.744Z,260
2017-02-08T07:25:44.394Z,272
2017-02-08T07:26:44.736Z,288
2017-02-08T07:27:43.880Z,296
2017-02-08T07:28:44.243Z,308
2017-02-08T07:29:44.266Z,320
2017-02-08T07:30:44.207Z,332
2017-02-08T07:31:44.549Z,348
2017-02-08T07:32:43.768Z,364
2017-02-08T07:33:44.110Z,380
2017-02-08T07:34:44.480Z,388
2017-02-08T07:35:44.059Z,404
2017-02-08T07:36:44.027Z,416
2017-02-08T07:37:44.007Z,428
2017-02-08T07:38:44.382Z,440
2017-02-08T07:39:44.335Z,452
2017-02-08T07:40:43.915Z,464
2017-02-08T07:41:44.286Z,476
2017-02-08T07:42:43.875Z,492
2017-02-08T07:43:44.225Z,504
2017-02-08T07:44:43.804Z,520
2017-02-08T07:45:44.184Z,536
2017-02-08T07:46:43.752Z,552
2017-02-08T07:47:44.111Z,568
2017-02-08T07:48:43.704Z,580
2017-02-08T07:49:43.660Z,596
2017-02-08T07:50:43.642Z,608
2017-02-08T07:51:43.620Z,624
2017-02-08T07:52:43.579Z,640
2017-02-08T07:53:43.569Z,656
2017-02-08T07:54:43.951Z,668
2017-02-08T07:55:43.529Z,684
2017-02-08T07:56:43.516Z,696
2017-02-08T07:57:43.087Z,712
2017-02-08T07:58:43.436Z,728
2017-02-08T07:59:43.009Z,744
2017-02-08T08:00:43.374Z,760
2017-02-08T08:01:43.733Z,776
2017-02-08T08:02:42.925Z,796
2017-02-08T08:03:43.731Z,816
2017-02-08T08:04:43.264Z,836
2017-02-08T08:05:42.873Z,852
2017-02-08T08:06:42.840Z,872
2017-02-08T08:07:43.599Z,896
2017-02-08T08:08:42.378Z,920
2017-02-08T08:09:43.140Z,948
2017-02-08T08:10:42.348Z,968
2017-02-08T08:11:43.097Z,992
2017-02-08T08:12:43.052Z,1016
2017-02-08T08:13:43.467Z,1036
2017-02-08T08:14:42.975Z,1060
2017-02-08T08:15:43.366Z,1076
2017-02-08T08:16:43.326Z,1100
2017-02-08T08:17:43.362Z,1116
2017-02-08T08:18:42.894Z,1140
2017-02-08T08:19:42.843Z,1160
2017-02-08T08:20:43.224Z,1188
2017-02-08T08:21:42.792Z,1212
2017-02-08T08:22:42.383Z,1228
2017-02-08T08:23:42.360Z,1240
2017-02-08T08:24:43.103Z,1240
2017-02-08T08:25:42.703Z,1236
2017-02-08T08:26:42.673Z,1232
2017-02-08T08:27:42.258Z,1232
2017-02-08T08:28:42.609Z,1236
2017-02-08T08:29:43.056Z,1240
2017-02-08T08:30:42.176Z,1240
2017-02-08T08:31:42.518Z,1248
2017-02-08T08:32:42.885Z,1252
2017-02-08T08:33:42.084Z,1260
2017-02-08T08:34:42.049Z,1272
2017-02-08T08:35:42.425Z,1284
2017-02-08T08:36:42.801Z,1300
2017-02-08T08:37:42.862Z,1320
2017-02-08T08:38:42.342Z,1340
2017-02-08T08:39:42.302Z,1364
2017-02-08T08:40:42.660Z,1388
2017-02-08T08:41:42.251Z,1412
2017-02-08T08:42:42.700Z,1440
2017-02-08T08:43:42.208Z,1464
2017-02-08T08:44:42.159Z,1500
2017-02-08T08:45:42.546Z,1536
2017-02-08T08:46:42.507Z,1564
2017-02-08T08:47:42.487Z,1592
2017-02-08T08:48:42.446Z,1620
2017-02-08T08:49:42.452Z,1636
2017-02-08T08:50:42.017Z,1648
2017-02-08T08:51:42.386Z,1664
2017-02-08T08:52:42.345Z,1672
2017-02-08T08:53:41.940Z,1684
2017-02-08T08:54:42.311Z,1700
2017-02-08T08:55:42.275Z,1716
2017-02-08T08:56:41.853Z,1744
2017-02-08T08:57:42.202Z,1768
2017-02-08T08:58:42.241Z,1796
2017-02-08T08:59:41.822Z,1828
2017-02-08T09:00:42.174Z,1856
2017-02-08T09:01:42.161Z,1888
2017-02-08T09:02:42.087Z,1908
2017-02-08T09:03:41.325Z,1932
2017-02-08T09:04:42.029Z,1936
2017-02-08T09:05:41.998Z,1940
2017-02-08T09:06:42.017Z,1940
2017-02-08T09:07:41.657Z,1960
2017-02-08T09:08:41.547Z,1960
2017-02-08T09:09:41.886Z,1976
2017-02-08T09:10:41.085Z,1992
2017-02-08T09:11:41.503Z,2000
2017-02-08T09:12:41.865Z,2000
2017-02-08T09:13:41.416Z,1996
2017-02-08T09:14:41.374Z,1976
2017-02-08T09:15:41.394Z,1960
2017-02-08T09:16:41.352Z,1932
2017-02-08T09:17:41.722Z,1912
2017-02-08T09:18:41.273Z,1920
2017-02-08T09:19:40.859Z,1896
2017-02-08T09:20:41.673Z,1900
2017-02-08T09:21:41.181Z,1892
2017-02-08T09:22:41.216Z,1876
2017-02-08T09:23:41.141Z,1884
2017-02-08T09:24:41.099Z,1892
2017-02-08T09:25:40.689Z,1900
2017-02-08T09:26:41.059Z,1912
2017-02-08T09:27:40.647Z,1912
2017-02-08T09:28:40.998Z,1900
2017-02-08T09:29:40.600Z,1904
2017-02-08T09:30:40.948Z,1904
2017-02-08T09:31:40.945Z,1904
2017-02-08T09:32:41.325Z,1904
2017-02-08T09:33:40.871Z,1908
2017-02-08T09:34:41.285Z,1916
2017-02-08T09:35:40.803Z,1932
2017-02-08T09:36:40.776Z,1936
2017-02-08T09:37:41.238Z,1960
2017-02-08T09:38:41.161Z,1964
2017-02-08T09:39:41.082Z,1964
2017-02-08T09:40:39.900Z,1960
2017-02-08T09:41:41.123Z,1976
2017-02-08T09:42:41.001Z,1980
2017-02-08T09:43:40.992Z,1984
2017-02-08T09:44:41.031Z,1972
2017-02-08T09:45:40.607Z,2016
2017-02-08T09:46:40.900Z,2044
2017-02-08T09:47:40.942Z,2052
2017-02-08T09:48:40.868Z,2060
2017-02-08T09:49:40.468Z,2068
2017-02-08T09:50:40.839Z,2080
2017-02-08T09:51:40.382Z,2092
2017-02-08T09:52:40.765Z,2112
2017-02-08T09:53:40.737Z,2120
2017-02-08T09:54:40.306Z,2136
2017-02-08T09:55:40.663Z,2160
2017-02-08T09:56:40.633Z,2168
2017-02-08T09:57:39.843Z,2192
2017-02-08T09:58:40.594Z,2232
2017-02-08T09:59:40.174Z,2276
2017-02-08T10:00:40.523Z,2312
2017-02-08T10:01:40.113Z,2340
2017-02-08T10:02:40.474Z,2376
2017-02-08T10:03:40.450Z,2404
2017-02-08T10:04:40.449Z,2432
2017-02-08T10:05:40.400Z,2444
2017-02-08T10:06:40.406Z,2464
2017-02-08T10:07:39.958Z,2468
2017-02-08T10:08:40.029Z,2476
2017-02-08T10:09:39.658Z,2504
2017-02-08T10:10:39.899Z,2536
2017-02-08T10:11:40.253Z,2556
2017-02-08T10:12:40.220Z,2564
2017-02-08T10:13:40.195Z,2576
2017-02-08T10:14:40.274Z,2588
2017-02-08T10:15:39.354Z,2600
2017-02-08T10:16:39.333Z,2616
2017-02-08T10:17:40.071Z,2648
2017-02-08T10:18:40.067Z,2660
2017-02-08T10:19:39.756Z,2672
2017-02-08T10:20:39.634Z,2712
2017-02-08T10:21:39.992Z,2752
2017-02-08T10:22:39.681Z,2824
2017-02-08T10:23:39.192Z,2868
2017-02-08T10:24:39.510Z,2908
2017-02-08T10:25:39.550Z,2936
2017-02-08T10:26:39.190Z,2960
2017-02-08T10:27:39.544Z,2972
2017-02-08T10:28:39.788Z,3024
2017-02-08T10:29:39.850Z,3064
2017-02-08T10:30:39.385Z,3116
2017-02-08T10:31:39.314Z,3156
2017-02-08T10:32:39.309Z,3224
2017-02-08T10:33:38.881Z,3320
2017-02-08T10:34:38.868Z,3408
2017-02-08T10:35:39.235Z,3528
2017-02-08T10:36:39.201Z,3620
2017-02-08T10:37:39.313Z,3728
2017-02-08T10:38:39.154Z,3812
2017-02-08T10:39:39.215Z,3912
2017-02-08T10:40:39.082Z,4116
2017-02-08T10:41:39.584Z,4324
2017-02-08T10:42:39.491Z,4528
2017-02-08T10:43:38.999Z,4744
2017-02-08T10:44:39.381Z,4928
2017-02-08T10:45:39.000Z,5044
2017-02-08T10:46:39.369Z,5180
2017-02-08T10:47:39.290Z,5284
2017-02-08T10:48:38.872Z,5364
2017-02-08T10:49:39.237Z,5416
2017-02-08T10:50:38.419Z,5464
2017-02-08T10:51:38.806Z,5520
2017-02-08T10:52:39.169Z,5496
2017-02-08T10:53:39.131Z,5548
2017-02-08T10:54:39.126Z,5580
2017-02-08T10:55:38.725Z,5660
2017-02-08T10:56:39.085Z,5920
2017-02-08T10:57:38.627Z,6512
2017-02-08T10:58:39.004Z,6748
2017-02-08T10:59:38.995Z,7112
2017-02-08T11:00:38.960Z,7648
2017-02-08T11:01:38.621Z,7796
2017-02-08T11:02:38.908Z,7984
2017-02-08T11:03:38.527Z,8076
2017-02-08T11:04:38.471Z,8640
2017-02-08T11:05:38.846Z,8184
2017-02-08T11:06:38.807Z,8200
2017-02-08T11:07:38.777Z,8372
2017-02-08T11:08:38.759Z,8384
2017-02-08T11:09:38.327Z,8552
2017-02-08T11:10:38.320Z,8920
2017-02-08T11:11:38.717Z,9024
2017-02-08T11:12:38.636Z,8552
2017-02-08T11:13:37.478Z,8552
2017-02-08T11:14:38.608Z,8764
2017-02-08T11:15:38.714Z,9288
2017-02-08T11:16:38.166Z,9856
2017-02-08T11:17:38.134Z,11116
2017-02-08T11:18:38.113Z,12016
2017-02-08T11:19:38.143Z,13144
2017-02-08T11:20:38.462Z,13472
2017-02-08T11:21:38.480Z,13712
2017-02-08T11:22:38.420Z,15744
2017-02-08T11:23:38.045Z,15232
2017-02-08T11:24:37.982Z,11956
2017-02-08T11:25:38.033Z,10444
2017-02-08T11:26:37.919Z,10472
2017-02-08T11:27:37.948Z,9784
2017-02-08T11:28:37.868Z,10080
2017-02-08T11:29:37.504Z,10328
2017-02-08T11:30:38.217Z,9488
2017-02-08T11:31:38.196Z,10048
2017-02-08T11:32:38.180Z,9664
2017-02-08T11:33:38.179Z,9292
2017-02-08T11:34:37.735Z,10560
2017-02-08T11:35:37.767Z,10172
2017-02-08T11:36:37.712Z,12096
2017-02-08T11:37:37.691Z,12788
2017-02-08T11:38:37.252Z,10948
2017-02-08T11:39:37.631Z,10768
2017-02-08T11:40:37.645Z,12100
2017-02-08T11:41:37.275Z,12924
2017-02-08T11:42:37.141Z,15712
2017-02-08T11:43:37.531Z,12372
2017-02-08T11:44:37.930Z,11652
2017-02-08T11:45:37.879Z,11612
2017-02-08T11:46:37.068Z,11436
2017-02-08T11:47:37.438Z,10868
2017-02-08T11:48:37.827Z,10336
2017-02-08T11:49:37.017Z,9532
2017-02-08T11:50:36.983Z,9644
2017-02-08T11:51:37.795Z,9168
2017-02-08T11:52:37.405Z,9700
2017-02-08T11:53:37.709Z,10696
2017-02-08T11:54:37.294Z,9104
2017-02-08T11:55:36.853Z,8768
2017-02-08T11:56:36.842Z,9156
2017-02-08T11:57:37.204Z,9212
2017-02-08T11:58:37.671Z,9440
2017-02-08T11:59:37.164Z,8692
2017-02-08T12:00:36.831Z,9460
2017-02-08T12:01:37.210Z,9408
2017-02-08T12:02:37.159Z,8964
2017-02-08T12:03:37.069Z,7924
2017-02-08T12:04:37.466Z,7300
2017-02-08T12:05:37.459Z,6684
2017-02-08T12:06:36.997Z,6332
2017-02-08T12:07:36.974Z,6156
2017-02-08T12:08:37.346Z,6160
2017-02-08T12:09:37.326Z,6500
2017-02-08T12:10:36.948Z,6508
2017-02-08T12:11:36.489Z,6784
2017-02-08T12:12:36.837Z,7280
2017-02-08T12:13:37.223Z,7440
2017-02-08T12:14:36.813Z,7628
2017-02-08T12:15:37.182Z,8028
2017-02-08T12:16:36.768Z,7740
2017-02-08T12:17:36.760Z,6888
2017-02-08T12:18:37.201Z,6372
2017-02-08T12:19:36.309Z,6372
2017-02-08T12:20:36.662Z,5524
2017-02-08T12:21:36.682Z,5332
2017-02-08T12:22:37.068Z,5084
2017-02-08T12:23:36.594Z,4904
2017-02-08T12:24:35.795Z,5096
2017-02-08T12:25:36.940Z,5272
2017-02-08T12:26:36.131Z,4940
2017-02-08T12:27:36.497Z,5052
2017-02-08T12:28:36.084Z,4968
2017-02-08T12:29:36.453Z,5376
2017-02-08T12:30:36.421Z,6636
2017-02-08T12:31:36.404Z,6620
2017-02-08T12:32:36.371Z,5936
2017-02-08T12:33:36.753Z,6064
2017-02-08T12:34:36.727Z,6056
2017-02-08T12:35:36.290Z,5644
2017-02-08T12:36:36.690Z,5436
2017-02-08T12:37:36.260Z,5220
2017-02-08T12:38:36.241Z,5200
2017-02-08T12:39:36.598Z,5280
2017-02-08T12:40:36.208Z,5776
2017-02-08T12:41:36.541Z,5708
2017-02-08T12:42:36.524Z,5696
2017-02-08T12:43:35.727Z,5212
2017-02-08T12:44:36.484Z,5160
2017-02-08T12:45:36.058Z,5560
2017-02-08T12:46:36.449Z,6204
2017-02-08T12:47:36.397Z,6624
2017-02-08T12:48:36.386Z,6400
2017-02-08T12:49:36.366Z,8120
2017-02-08T12:50:36.314Z,6176
2017-02-08T12:51:35.945Z,5876
2017-02-08T12:52:35.891Z,5416
2017-02-08T12:53:36.250Z,5168
2017-02-08T12:54:35.852Z,5292
2017-02-08T12:55:35.820Z,5380
2017-02-08T12:56:36.215Z,5920
2017-02-08T12:57:35.770Z,6092
2017-02-08T12:58:35.750Z,6244
2017-02-08T12:59:35.719Z,6036
2017-02-08T13:00:35.677Z,5948
2017-02-08T13:01:36.077Z,6112
2017-02-08T13:02:36.040Z,6000
2017-02-08T13:03:36.036Z,5728
2017-02-08T13:04:35.975Z,5396
2017-02-08T13:05:35.965Z,5004
2017-02-08T13:06:35.560Z,4764
2017-02-08T13:07:35.914Z,4964
2017-02-08T13:08:35.526Z,4640
2017-02-08T13:09:35.471Z,4564
2017-02-08T13:10:35.831Z,4600
2017-02-08T13:11:35.892Z,4656
2017-02-08T13:12:35.810Z,4700
2017-02-08T13:13:35.750Z,4840
2017-02-08T13:14:34.968Z,4908
2017-02-08T13:15:34.939Z,4812
2017-02-08T13:16:34.912Z,4616
2017-02-08T13:17:35.728Z,4584
2017-02-08T13:18:34.874Z,4552
2017-02-08T13:19:35.226Z,4308
2017-02-08T13:20:35.196Z,3928
2017-02-08T13:21:35.598Z,3792
2017-02-08T13:22:35.546Z,3796
2017-02-08T13:23:35.526Z,3764
2017-02-08T13:24:35.536Z,4044
2017-02-08T13:25:35.148Z,3976
2017-02-08T13:26:35.065Z,3888
2017-02-08T13:27:34.652Z,3784
2017-02-08T13:28:35.004Z,3756
2017-02-08T13:29:35.002Z,3816
2017-02-08T13:30:35.378Z,4008
2017-02-08T13:31:35.321Z,4104
2017-02-08T13:32:35.320Z,4104
2017-02-08T13:33:34.501Z,4032
2017-02-08T13:34:35.249Z,3964
2017-02-08T13:35:34.819Z,3988
2017-02-08T13:36:35.195Z,4040
2017-02-08T13:37:34.798Z,4108
2017-02-08T13:38:34.370Z,4112
2017-02-08T13:39:34.720Z,4064
2017-02-08T13:40:34.706Z,4004
2017-02-08T13:41:35.165Z,3968
2017-02-08T13:42:35.058Z,3952
2017-02-08T13:43:35.027Z,4016
2017-02-08T13:44:35.000Z,4132
2017-02-08T13:45:34.204Z,4156
2017-02-08T13:46:35.044Z,4208
2017-02-08T13:47:34.541Z,4184
2017-02-08T13:48:34.903Z,4132
2017-02-08T13:49:34.913Z,4036
2017-02-08T13:50:34.480Z,4000
2017-02-08T13:51:34.843Z,3968
2017-02-08T13:52:34.410Z,3944
2017-02-08T13:53:34.767Z,3808
2017-02-08T13:54:34.369Z,3644
2017-02-08T13:55:34.378Z,3508
2017-02-08T13:56:34.331Z,3444
2017-02-08T13:57:34.776Z,3424
2017-02-08T13:58:34.375Z,3400
2017-02-08T13:59:34.245Z,3436
2017-02-08T14:00:34.607Z,3408
2017-02-08T14:01:33.794Z,3304